sensor_id;sensor_type;location;lat;lon;timestamp;P1;durP1;ratioP1;P2;durP2;ratioP2
70416;SDS011;57839;51.332;12.410;2022-07-06T00:00:31;2.72;;;1.17;;
70416;SDS011;57839;51.332;12.410;2022-07-06T00:02:56;7.65;;;1.45;;
70416;SDS011;57839;51.332;12.410;2022-07-06T00:05:22;2.95;;;1.52;;
70416;SDS011;57839;51.332;12.410;2022-07-06T00:07:47;2.47;;;1.70;;
70416;SDS011;57839;51.332;12.410;2022-07-06T00:10:13;2.45;;;1.50;;
70416;SDS011;57839;51.332;12.410;2022-07-06T00:12:38;2.90;;;1.20;;
70416;SDS011;57839;51.332;12.410;2022-07-06T00:15:04;2.78;;;1.30;;
70416;SDS011;57839;51.332;12.410;2022-07-06T00:17:30;2.17;;;1.33;;
70416;SDS011;57839;51.332;12.410;2022-07-06T00:19:56;2.33;;;1.27;;
70416;SDS011;57839;51.332;12.410;2022-07-06T00:22:21;2.28;;;1.60;;
70416;SDS011;57839;51.332;12.410;2022-07-06T00:24:47;2.53;;;1.38;;
70416;SDS011;57839;51.332;12.410;2022-07-06T00:27:12;1.88;;;1.40;;
70416;SDS011;57839;51.332;12.410;2022-07-06T00:29:38;2.65;;;1.20;;
70416;SDS011;57839;51.332;12.410;2022-07-06T00:32:09;1.38;;;1.17;;
70416;SDS011;57839;51.332;12.410;2022-07-06T00:34:35;3.58;;;1.50;;
70416;SDS011;57839;51.332;12.410;2022-07-06T00:37:01;1.65;;;1.35;;
70416;SDS011;57839;51.332;12.410;2022-07-06T00:39:27;6.45;;;1.48;;
70416;SDS011;57839;51.332;12.410;2022-07-06T00:41:55;4.13;;;1.30;;
70416;SDS011;57839;51.332;12.410;2022-07-06T00:44:21;2.42;;;1.33;;
70416;SDS011;57839;51.332;12.410;2022-07-06T00:46:47;8.18;;;1.30;;
70416;SDS011;57839;51.332;12.410;2022-07-06T00:49:12;5.40;;;1.30;;
70416;SDS011;57839;51.332;12.410;2022-07-06T00:51:58;5.45;;;1.50;;
70416;SDS011;57839;51.332;12.410;2022-07-06T00:54:24;2.58;;;1.50;;
70416;SDS011;57839;51.332;12.410;2022-07-06T00:56:50;2.85;;;1.42;;
70416;SDS011;57839;51.332;12.410;2022-07-06T00:59:16;2.35;;;1.20;;
70416;SDS011;57839;51.332;12.410;2022-07-06T01:01:41;1.80;;;1.30;;
70416;SDS011;57839;51.332;12.410;2022-07-06T01:04:07;3.35;;;1.40;;
70416;SDS011;57839;51.332;12.410;2022-07-06T01:06:33;3.33;;;1.30;;
70416;SDS011;57839;51.332;12.410;2022-07-06T01:08:58;2.75;;;1.25;;
70416;SDS011;57839;51.332;12.410;2022-07-06T01:11:24;1.75;;;1.02;;
70416;SDS011;57839;51.332;12.410;2022-07-06T01:13:50;2.50;;;1.40;;
70416;SDS011;57839;51.332;12.410;2022-07-06T01:16:16;3.50;;;1.50;;
70416;SDS011;57839;51.332;12.410;2022-07-06T01:18:42;3.28;;;1.50;;
70416;SDS011;57839;51.332;12.410;2022-07-06T01:21:12;5.00;;;1.27;;
70416;SDS011;57839;51.332;12.410;2022-07-06T01:23:42;2.35;;;1.45;;
70416;SDS011;57839;51.332;12.410;2022-07-06T01:26:09;5.78;;;1.40;;
70416;SDS011;57839;51.332;12.410;2022-07-06T01:28:36;2.20;;;1.50;;
70416;SDS011;57839;51.332;12.410;2022-07-06T01:31:01;3.45;;;1.50;;
70416;SDS011;57839;51.332;12.410;2022-07-06T01:33:27;3.63;;;1.88;;
70416;SDS011;57839;51.332;12.410;2022-07-06T01:35:52;3.15;;;1.90;;
70416;SDS011;57839;51.332;12.410;2022-07-06T01:38:18;3.28;;;1.73;;
70416;SDS011;57839;51.332;12.410;2022-07-06T01:40:43;8.43;;;1.92;;
70416;SDS011;57839;51.332;12.410;2022-07-06T01:43:09;3.42;;;1.70;;
70416;SDS011;57839;51.332;12.410;2022-07-06T01:45:34;2.40;;;2.00;;
70416;SDS011;57839;51.332;12.410;2022-07-06T01:48:00;4.63;;;1.90;;
70416;SDS011;57839;51.332;12.410;2022-07-06T01:50:25;4.60;;;2.65;;
70416;SDS011;57839;51.332;12.410;2022-07-06T01:52:51;6.57;;;2.53;;
70416;SDS011;57839;51.332;12.410;2022-07-06T01:55:16;5.82;;;2.20;;
70416;SDS011;57839;51.332;12.410;2022-07-06T01:57:42;5.35;;;1.98;;
70416;SDS011;57839;51.332;12.410;2022-07-06T02:00:07;2.90;;;1.83;;
70416;SDS011;57839;51.332;12.410;2022-07-06T02:02:33;4.28;;;2.20;;
70416;SDS011;57839;51.332;12.410;2022-07-06T02:04:59;4.32;;;2.00;;
70416;SDS011;57839;51.332;12.410;2022-07-06T02:07:24;2.20;;;1.73;;
70416;SDS011;57839;51.332;12.410;2022-07-06T02:09:50;4.07;;;2.10;;
70416;SDS011;57839;51.332;12.410;2022-07-06T02:12:15;6.93;;;2.55;;
70416;SDS011;57839;51.332;12.410;2022-07-06T02:14:41;4.57;;;2.13;;
70416;SDS011;57839;51.332;12.410;2022-07-06T02:17:07;4.20;;;2.13;;
70416;SDS011;57839;51.332;12.410;2022-07-06T02:19:32;2.65;;;1.67;;
70416;SDS011;57839;51.332;12.410;2022-07-06T02:21:58;2.60;;;1.85;;
70416;SDS011;57839;51.332;12.410;2022-07-06T02:24:23;6.38;;;2.30;;
70416;SDS011;57839;51.332;12.410;2022-07-06T02:26:49;6.03;;;2.30;;
70416;SDS011;57839;51.332;12.410;2022-07-06T02:29:14;3.08;;;2.17;;
70416;SDS011;57839;51.332;12.410;2022-07-06T02:31:39;3.35;;;2.20;;
70416;SDS011;57839;51.332;12.410;2022-07-06T02:34:05;4.25;;;2.10;;
70416;SDS011;57839;51.332;12.410;2022-07-06T02:36:30;3.13;;;2.22;;
70416;SDS011;57839;51.332;12.410;2022-07-06T02:38:56;7.80;;;2.50;;
70416;SDS011;57839;51.332;12.410;2022-07-06T02:41:21;2.88;;;2.05;;
70416;SDS011;57839;51.332;12.410;2022-07-06T02:43:47;4.47;;;2.60;;
70416;SDS011;57839;51.332;12.410;2022-07-06T02:46:12;3.95;;;2.20;;
70416;SDS011;57839;51.332;12.410;2022-07-06T02:48:38;5.45;;;2.15;;
70416;SDS011;57839;51.332;12.410;2022-07-06T02:51:03;4.13;;;2.17;;
70416;SDS011;57839;51.332;12.410;2022-07-06T02:53:29;3.88;;;2.50;;
70416;SDS011;57839;51.332;12.410;2022-07-06T02:55:55;4.50;;;2.00;;
70416;SDS011;57839;51.332;12.410;2022-07-06T02:58:20;5.82;;;2.08;;
70416;SDS011;57839;51.332;12.410;2022-07-06T03:00:46;6.72;;;2.15;;
70416;SDS011;57839;51.332;12.410;2022-07-06T03:03:11;3.55;;;2.10;;
70416;SDS011;57839;51.332;12.410;2022-07-06T03:05:37;3.75;;;2.10;;
70416;SDS011;57839;51.332;12.410;2022-07-06T03:08:02;3.40;;;1.88;;
70416;SDS011;57839;51.332;12.410;2022-07-06T03:10:28;4.88;;;2.55;;
70416;SDS011;57839;51.332;12.410;2022-07-06T03:12:54;2.58;;;2.00;;
70416;SDS011;57839;51.332;12.410;2022-07-06T03:15:19;3.25;;;1.90;;
70416;SDS011;57839;51.332;12.410;2022-07-06T03:17:45;2.72;;;1.98;;
70416;SDS011;57839;51.332;12.410;2022-07-06T03:20:10;3.53;;;1.80;;
70416;SDS011;57839;51.332;12.410;2022-07-06T03:22:36;3.35;;;2.05;;
70416;SDS011;57839;51.332;12.410;2022-07-06T03:25:02;3.70;;;1.95;;
70416;SDS011;57839;51.332;12.410;2022-07-06T03:27:27;3.97;;;2.20;;
70416;SDS011;57839;51.332;12.410;2022-07-06T03:29:53;3.42;;;1.88;;
70416;SDS011;57839;51.332;12.410;2022-07-06T03:32:18;2.50;;;1.90;;
70416;SDS011;57839;51.332;12.410;2022-07-06T03:34:43;3.70;;;1.88;;
70416;SDS011;57839;51.332;12.410;2022-07-06T03:37:09;5.25;;;1.88;;
70416;SDS011;57839;51.332;12.410;2022-07-06T03:39:34;2.35;;;2.00;;
70416;SDS011;57839;51.332;12.410;2022-07-06T03:42:00;3.28;;;1.88;;
70416;SDS011;57839;51.332;12.410;2022-07-06T03:44:25;4.75;;;2.22;;
70416;SDS011;57839;51.332;12.410;2022-07-06T03:46:51;3.80;;;1.85;;
70416;SDS011;57839;51.332;12.410;2022-07-06T03:49:19;3.85;;;2.08;;
70416;SDS011;57839;51.332;12.410;2022-07-06T03:51:48;5.93;;;2.20;;
70416;SDS011;57839;51.332;12.410;2022-07-06T03:54:13;2.88;;;2.35;;
70416;SDS011;57839;51.332;12.410;2022-07-06T03:56:39;4.50;;;2.13;;
70416;SDS011;57839;51.332;12.410;2022-07-06T03:59:04;3.13;;;2.03;;
70416;SDS011;57839;51.332;12.410;2022-07-06T04:01:30;5.93;;;2.08;;
70416;SDS011;57839;51.332;12.410;2022-07-06T04:03:56;3.95;;;2.10;;
70416;SDS011;57839;51.332;12.410;2022-07-06T04:06:21;5.60;;;1.85;;
70416;SDS011;57839;51.332;12.410;2022-07-06T04:08:47;4.97;;;2.00;;
70416;SDS011;57839;51.332;12.410;2022-07-06T04:11:13;5.47;;;1.90;;
70416;SDS011;57839;51.332;12.410;2022-07-06T04:13:38;6.38;;;2.05;;
70416;SDS011;57839;51.332;12.410;2022-07-06T04:16:04;4.00;;;1.75;;
70416;SDS011;57839;51.332;12.410;2022-07-06T04:18:31;2.08;;;1.83;;
70416;SDS011;57839;51.332;12.410;2022-07-06T04:20:56;4.32;;;1.90;;
70416;SDS011;57839;51.332;12.410;2022-07-06T04:23:25;4.65;;;2.15;;
70416;SDS011;57839;51.332;12.410;2022-07-06T04:25:50;3.97;;;1.77;;
70416;SDS011;57839;51.332;12.410;2022-07-06T04:28:16;4.15;;;2.33;;
70416;SDS011;57839;51.332;12.410;2022-07-06T04:30:41;4.32;;;1.83;;
70416;SDS011;57839;51.332;12.410;2022-07-06T04:33:07;3.15;;;1.90;;
70416;SDS011;57839;51.332;12.410;2022-07-06T04:35:32;5.38;;;2.72;;
70416;SDS011;57839;51.332;12.410;2022-07-06T04:37:58;4.07;;;1.90;;
70416;SDS011;57839;51.332;12.410;2022-07-06T04:40:23;3.05;;;1.85;;
70416;SDS011;57839;51.332;12.410;2022-07-06T04:42:49;3.33;;;2.00;;
70416;SDS011;57839;51.332;12.410;2022-07-06T04:45:14;3.13;;;2.00;;
70416;SDS011;57839;51.332;12.410;2022-07-06T04:47:40;6.10;;;2.20;;
70416;SDS011;57839;51.332;12.410;2022-07-06T04:50:06;4.55;;;2.20;;
70416;SDS011;57839;51.332;12.410;2022-07-06T04:52:32;3.42;;;1.98;;
70416;SDS011;57839;51.332;12.410;2022-07-06T04:54:57;3.53;;;1.80;;
70416;SDS011;57839;51.332;12.410;2022-07-06T04:57:23;6.78;;;1.70;;
70416;SDS011;57839;51.332;12.410;2022-07-06T04:59:51;4.88;;;2.30;;
70416;SDS011;57839;51.332;12.410;2022-07-06T05:02:17;4.50;;;2.35;;
70416;SDS011;57839;51.332;12.410;2022-07-06T05:04:43;3.20;;;1.80;;
70416;SDS011;57839;51.332;12.410;2022-07-06T05:07:08;6.80;;;2.05;;
70416;SDS011;57839;51.332;12.410;2022-07-06T05:09:34;7.38;;;2.10;;
70416;SDS011;57839;51.332;12.410;2022-07-06T05:11:59;4.90;;;2.00;;
70416;SDS011;57839;51.332;12.410;2022-07-06T05:14:25;5.15;;;2.00;;
70416;SDS011;57839;51.332;12.410;2022-07-06T05:16:51;5.72;;;2.30;;
70416;SDS011;57839;51.332;12.410;2022-07-06T05:19:16;2.60;;;1.80;;
70416;SDS011;57839;51.332;12.410;2022-07-06T05:21:42;4.38;;;1.88;;
70416;SDS011;57839;51.332;12.410;2022-07-06T05:24:07;3.72;;;2.30;;
70416;SDS011;57839;51.332;12.410;2022-07-06T05:26:33;6.63;;;2.10;;
70416;SDS011;57839;51.332;12.410;2022-07-06T05:28:58;4.25;;;2.10;;
70416;SDS011;57839;51.332;12.410;2022-07-06T05:31:24;3.97;;;1.65;;
70416;SDS011;57839;51.332;12.410;2022-07-06T05:33:49;4.38;;;1.90;;
70416;SDS011;57839;51.332;12.410;2022-07-06T05:36:15;7.10;;;1.90;;
70416;SDS011;57839;51.332;12.410;2022-07-06T05:38:40;23.65;;;3.25;;
70416;SDS011;57839;51.332;12.410;2022-07-06T05:41:06;8.40;;;2.20;;
70416;SDS011;57839;51.332;12.410;2022-07-06T05:43:31;17.02;;;2.83;;
70416;SDS011;57839;51.332;12.410;2022-07-06T05:45:57;12.35;;;2.15;;
70416;SDS011;57839;51.332;12.410;2022-07-06T05:48:22;26.50;;;3.30;;
70416;SDS011;57839;51.332;12.410;2022-07-06T05:51:06;12.38;;;2.63;;
70416;SDS011;57839;51.332;12.410;2022-07-06T05:53:32;13.85;;;2.50;;
70416;SDS011;57839;51.332;12.410;2022-07-06T05:55:57;13.68;;;2.10;;
70416;SDS011;57839;51.332;12.410;2022-07-06T05:58:23;23.67;;;2.67;;
70416;SDS011;57839;51.332;12.410;2022-07-06T06:00:50;5.03;;;2.45;;
70416;SDS011;57839;51.332;12.410;2022-07-06T06:03:16;7.65;;;1.90;;
70416;SDS011;57839;51.332;12.410;2022-07-06T06:05:42;11.50;;;2.50;;
70416;SDS011;57839;51.332;12.410;2022-07-06T06:08:07;7.65;;;1.77;;
70416;SDS011;57839;51.332;12.410;2022-07-06T06:10:33;5.35;;;1.65;;
70416;SDS011;57839;51.332;12.410;2022-07-06T06:12:59;8.80;;;1.65;;
70416;SDS011;57839;51.332;12.410;2022-07-06T06:15:24;6.60;;;1.83;;
70416;SDS011;57839;51.332;12.410;2022-07-06T06:17:49;8.85;;;1.65;;
70416;SDS011;57839;51.332;12.410;2022-07-06T06:20:15;11.68;;;3.05;;
70416;SDS011;57839;51.332;12.410;2022-07-06T06:22:57;8.20;;;2.03;;
70416;SDS011;57839;51.332;12.410;2022-07-06T06:25:27;6.45;;;1.70;;
70416;SDS011;57839;51.332;12.410;2022-07-06T06:27:53;4.13;;;1.55;;
70416;SDS011;57839;51.332;12.410;2022-07-06T06:30:19;4.93;;;1.25;;
70416;SDS011;57839;51.332;12.410;2022-07-06T06:32:44;5.13;;;1.48;;
70416;SDS011;57839;51.332;12.410;2022-07-06T06:35:10;6.32;;;1.95;;
70416;SDS011;57839;51.332;12.410;2022-07-06T06:37:36;7.88;;;2.63;;
70416;SDS011;57839;51.332;12.410;2022-07-06T06:40:02;7.53;;;2.13;;
70416;SDS011;57839;51.332;12.410;2022-07-06T06:42:28;5.68;;;1.88;;
70416;SDS011;57839;51.332;12.410;2022-07-06T06:44:54;4.82;;;1.52;;
70416;SDS011;57839;51.332;12.410;2022-07-06T06:50:11;2.47;;;1.27;;
70416;SDS011;57839;51.332;12.410;2022-07-06T06:52:37;7.38;;;1.77;;
70416;SDS011;57839;51.332;12.410;2022-07-06T06:55:02;7.10;;;1.95;;
70416;SDS011;57839;51.332;12.410;2022-07-06T06:57:28;5.28;;;1.42;;
70416;SDS011;57839;51.332;12.410;2022-07-06T06:59:56;5.75;;;1.42;;
70416;SDS011;57839;51.332;12.410;2022-07-06T07:02:22;7.00;;;2.35;;
70416;SDS011;57839;51.332;12.410;2022-07-06T07:04:48;6.05;;;1.73;;
70416;SDS011;57839;51.332;12.410;2022-07-06T07:07:13;5.22;;;1.48;;
70416;SDS011;57839;51.332;12.410;2022-07-06T07:09:45;5.05;;;2.10;;
70416;SDS011;57839;51.332;12.410;2022-07-06T07:12:10;3.65;;;1.60;;
70416;SDS011;57839;51.332;12.410;2022-07-06T07:14:37;4.15;;;1.40;;
70416;SDS011;57839;51.332;12.410;2022-07-06T07:17:03;5.75;;;1.52;;
70416;SDS011;57839;51.332;12.410;2022-07-06T07:19:28;4.63;;;1.60;;
70416;SDS011;57839;51.332;12.410;2022-07-06T07:21:54;2.45;;;1.27;;
70416;SDS011;57839;51.332;12.410;2022-07-06T07:24:20;5.22;;;1.60;;
70416;SDS011;57839;51.332;12.410;2022-07-06T07:26:45;11.23;;;2.40;;
70416;SDS011;57839;51.332;12.410;2022-07-06T07:29:11;3.17;;;1.70;;
70416;SDS011;57839;51.332;12.410;2022-07-06T07:31:36;3.40;;;1.60;;
70416;SDS011;57839;51.332;12.410;2022-07-06T07:34:02;6.90;;;1.85;;
70416;SDS011;57839;51.332;12.410;2022-07-06T07:36:27;3.33;;;1.73;;
70416;SDS011;57839;51.332;12.410;2022-07-06T07:38:53;3.80;;;1.77;;
70416;SDS011;57839;51.332;12.410;2022-07-06T07:41:18;6.15;;;1.80;;
70416;SDS011;57839;51.332;12.410;2022-07-06T07:43:44;3.25;;;1.70;;
70416;SDS011;57839;51.332;12.410;2022-07-06T07:46:09;3.17;;;1.88;;
70416;SDS011;57839;51.332;12.410;2022-07-06T07:48:35;2.70;;;1.70;;
70416;SDS011;57839;51.332;12.410;2022-07-06T07:51:00;4.50;;;1.83;;
70416;SDS011;57839;51.332;12.410;2022-07-06T07:53:26;8.77;;;1.90;;
70416;SDS011;57839;51.332;12.410;2022-07-06T07:55:52;10.82;;;2.70;;
70416;SDS011;57839;51.332;12.410;2022-07-06T07:58:17;5.35;;;1.88;;
70416;SDS011;57839;51.332;12.410;2022-07-06T08:00:43;2.83;;;1.90;;
70416;SDS011;57839;51.332;12.410;2022-07-06T08:03:09;6.28;;;2.08;;
70416;SDS011;57839;51.332;12.410;2022-07-06T08:05:34;7.78;;;1.65;;
70416;SDS011;57839;51.332;12.410;2022-07-06T08:08:00;9.60;;;2.13;;
70416;SDS011;57839;51.332;12.410;2022-07-06T08:10:26;4.47;;;1.83;;
70416;SDS011;57839;51.332;12.410;2022-07-06T08:12:51;6.20;;;1.50;;
70416;SDS011;57839;51.332;12.410;2022-07-06T08:15:17;3.42;;;1.30;;
70416;SDS011;57839;51.332;12.410;2022-07-06T08:17:43;15.95;;;2.47;;
70416;SDS011;57839;51.332;12.410;2022-07-06T08:20:08;4.13;;;1.30;;
70416;SDS011;57839;51.332;12.410;2022-07-06T08:22:37;12.30;;;2.00;;
70416;SDS011;57839;51.332;12.410;2022-07-06T08:25:03;5.25;;;1.83;;
70416;SDS011;57839;51.332;12.410;2022-07-06T08:27:29;4.43;;;2.03;;
70416;SDS011;57839;51.332;12.410;2022-07-06T08:29:55;4.32;;;1.40;;
70416;SDS011;57839;51.332;12.410;2022-07-06T08:32:20;3.65;;;1.73;;
70416;SDS011;57839;51.332;12.410;2022-07-06T08:34:46;6.40;;;1.67;;
70416;SDS011;57839;51.332;12.410;2022-07-06T08:37:12;2.92;;;1.20;;
70416;SDS011;57839;51.332;12.410;2022-07-06T08:39:38;6.43;;;1.65;;
70416;SDS011;57839;51.332;12.410;2022-07-06T08:42:03;5.72;;;1.40;;
70416;SDS011;57839;51.332;12.410;2022-07-06T08:44:30;3.30;;;1.25;;
70416;SDS011;57839;51.332;12.410;2022-07-06T08:46:57;4.22;;;1.40;;
70416;SDS011;57839;51.332;12.410;2022-07-06T08:49:23;7.30;;;1.73;;
70416;SDS011;57839;51.332;12.410;2022-07-06T08:51:50;4.63;;;1.30;;
70416;SDS011;57839;51.332;12.410;2022-07-06T08:54:16;11.05;;;1.80;;
70416;SDS011;57839;51.332;12.410;2022-07-06T08:56:43;2.80;;;1.30;;
70416;SDS011;57839;51.332;12.410;2022-07-06T08:59:09;3.75;;;1.23;;
70416;SDS011;57839;51.332;12.410;2022-07-06T09:01:36;6.32;;;1.42;;
70416;SDS011;57839;51.332;12.410;2022-07-06T09:04:04;3.72;;;1.42;;
70416;SDS011;57839;51.332;12.410;2022-07-06T09:06:31;3.67;;;1.20;;
70416;SDS011;57839;51.332;12.410;2022-07-06T09:08:58;5.88;;;1.27;;
70416;SDS011;57839;51.332;12.410;2022-07-06T09:11:29;4.05;;;1.33;;
70416;SDS011;57839;51.332;12.410;2022-07-06T09:13:54;2.65;;;1.48;;
70416;SDS011;57839;51.332;12.410;2022-07-06T09:16:25;2.63;;;1.00;;
70416;SDS011;57839;51.332;12.410;2022-07-06T09:18:53;5.82;;;1.33;;
70416;SDS011;57839;51.332;12.410;2022-07-06T09:21:22;4.05;;;1.10;;
70416;SDS011;57839;51.332;12.410;2022-07-06T09:23:53;10.40;;;1.77;;
70416;SDS011;57839;51.332;12.410;2022-07-06T09:26:19;4.97;;;1.58;;
70416;SDS011;57839;51.332;12.410;2022-07-06T09:28:45;3.92;;;1.10;;
70416;SDS011;57839;51.332;12.410;2022-07-06T09:31:11;4.43;;;1.25;;
70416;SDS011;57839;51.332;12.410;2022-07-06T09:33:37;2.60;;;1.10;;
70416;SDS011;57839;51.332;12.410;2022-07-06T09:36:03;4.53;;;1.50;;
70416;SDS011;57839;51.332;12.410;2022-07-06T09:38:30;4.97;;;1.52;;
70416;SDS011;57839;51.332;12.410;2022-07-06T09:40:56;5.05;;;1.30;;
70416;SDS011;57839;51.332;12.410;2022-07-06T09:43:23;4.20;;;1.63;;
70416;SDS011;57839;51.332;12.410;2022-07-06T09:45:50;6.82;;;2.33;;
70416;SDS011;57839;51.332;12.410;2022-07-06T09:48:17;5.95;;;2.47;;
70416;SDS011;57839;51.332;12.410;2022-07-06T09:50:49;5.80;;;1.60;;
70416;SDS011;57839;51.332;12.410;2022-07-06T09:53:19;2.30;;;1.10;;
70416;SDS011;57839;51.332;12.410;2022-07-06T09:55:50;2.95;;;1.20;;
70416;SDS011;57839;51.332;12.410;2022-07-06T09:58:17;7.30;;;1.40;;
70416;SDS011;57839;51.332;12.410;2022-07-06T10:00:43;2.65;;;1.10;;
70416;SDS011;57839;51.332;12.410;2022-07-06T10:03:10;4.97;;;1.20;;
70416;SDS011;57839;51.332;12.410;2022-07-06T10:05:40;7.30;;;1.60;;
70416;SDS011;57839;51.332;12.410;2022-07-06T10:08:07;4.68;;;1.50;;
70416;SDS011;57839;51.332;12.410;2022-07-06T10:10:37;4.53;;;1.45;;
70416;SDS011;57839;51.332;12.410;2022-07-06T10:13:03;5.05;;;1.40;;
70416;SDS011;57839;51.332;12.410;2022-07-06T10:15:31;4.05;;;1.35;;
70416;SDS011;57839;51.332;12.410;2022-07-06T10:17:58;5.05;;;1.30;;
70416;SDS011;57839;51.332;12.410;2022-07-06T10:20:24;2.72;;;0.95;;
70416;SDS011;57839;51.332;12.410;2022-07-06T10:22:53;1.38;;;1.00;;
70416;SDS011;57839;51.332;12.410;2022-07-06T10:25:19;4.57;;;1.20;;
70416;SDS011;57839;51.332;12.410;2022-07-06T10:27:46;4.40;;;1.50;;
70416;SDS011;57839;51.332;12.410;2022-07-06T10:30:13;4.65;;;1.73;;
70416;SDS011;57839;51.332;12.410;2022-07-06T10:32:40;5.35;;;1.90;;
70416;SDS011;57839;51.332;12.410;2022-07-06T10:35:06;3.55;;;1.48;;
70416;SDS011;57839;51.332;12.410;2022-07-06T10:37:33;4.65;;;1.10;;
70416;SDS011;57839;51.332;12.410;2022-07-06T10:39:59;3.08;;;0.95;;
70416;SDS011;57839;51.332;12.410;2022-07-06T10:42:55;3.10;;;0.90;;
70416;SDS011;57839;51.332;12.410;2022-07-06T10:50:37;2.38;;;1.30;;
70416;SDS011;57839;51.332;12.410;2022-07-06T10:53:10;5.00;;;1.30;;
70416;SDS011;57839;51.332;12.410;2022-07-06T10:55:37;4.75;;;1.60;;
70416;SDS011;57839;51.332;12.410;2022-07-06T10:58:04;6.30;;;1.38;;
70416;SDS011;57839;51.332;12.410;2022-07-06T11:00:47;5.18;;;1.23;;
70416;SDS011;57839;51.332;12.410;2022-07-06T11:05:59;3.42;;;1.05;;
70416;SDS011;57839;51.332;12.410;2022-07-06T11:11:14;8.55;;;1.85;;
70416;SDS011;57839;51.332;12.410;2022-07-06T11:19:19;4.82;;;1.15;;
70416;SDS011;57839;51.332;12.410;2022-07-06T11:21:48;10.90;;;1.85;;
70416;SDS011;57839;51.332;12.410;2022-07-06T11:24:20;8.45;;;1.67;;
70416;SDS011;57839;51.332;12.410;2022-07-06T11:26:47;7.75;;;1.23;;
70416;SDS011;57839;51.332;12.410;2022-07-06T11:29:14;4.95;;;1.30;;
70416;SDS011;57839;51.332;12.410;2022-07-06T11:31:43;10.93;;;1.48;;
70416;SDS011;57839;51.332;12.410;2022-07-06T11:34:11;3.83;;;1.40;;
70416;SDS011;57839;51.332;12.410;2022-07-06T11:36:39;4.93;;;1.10;;
70416;SDS011;57839;51.332;12.410;2022-07-06T11:39:06;2.13;;;1.00;;
70416;SDS011;57839;51.332;12.410;2022-07-06T11:41:32;6.60;;;1.10;;
70416;SDS011;57839;51.332;12.410;2022-07-06T11:43:58;3.50;;;1.13;;
70416;SDS011;57839;51.332;12.410;2022-07-06T11:46:28;6.55;;;1.35;;
70416;SDS011;57839;51.332;12.410;2022-07-06T11:48:56;6.30;;;1.58;;
70416;SDS011;57839;51.332;12.410;2022-07-06T11:51:29;2.38;;;0.90;;
70416;SDS011;57839;51.332;12.410;2022-07-06T11:54:00;3.33;;;1.08;;
70416;SDS011;57839;51.332;12.410;2022-07-06T11:56:27;12.55;;;1.90;;
70416;SDS011;57839;51.332;12.410;2022-07-06T11:58:54;14.98;;;1.70;;
70416;SDS011;57839;51.332;12.410;2022-07-06T12:01:22;22.63;;;2.42;;
70416;SDS011;57839;51.332;12.410;2022-07-06T12:03:49;3.78;;;1.15;;
70416;SDS011;57839;51.332;12.410;2022-07-06T12:06:22;10.93;;;1.70;;
70416;SDS011;57839;51.332;12.410;2022-07-06T12:08:50;4.13;;;1.27;;
70416;SDS011;57839;51.332;12.410;2022-07-06T12:11:35;2.63;;;1.27;;
70416;SDS011;57839;51.332;12.410;2022-07-06T12:14:23;6.30;;;0.85;;
70416;SDS011;57839;51.332;12.410;2022-07-06T12:16:48;5.05;;;1.10;;
70416;SDS011;57839;51.332;12.410;2022-07-06T12:19:14;11.73;;;1.92;;
70416;SDS011;57839;51.332;12.410;2022-07-06T12:24:17;12.93;;;1.90;;
70416;SDS011;57839;51.332;12.410;2022-07-06T12:26:47;5.82;;;1.50;;
70416;SDS011;57839;51.332;12.410;2022-07-06T12:29:13;3.80;;;1.20;;
70416;SDS011;57839;51.332;12.410;2022-07-06T12:31:40;16.52;;;1.90;;
70416;SDS011;57839;51.332;12.410;2022-07-06T12:34:17;8.88;;;1.52;;
70416;SDS011;57839;51.332;12.410;2022-07-06T12:36:44;3.95;;;1.25;;
70416;SDS011;57839;51.332;12.410;2022-07-06T12:39:11;2.70;;;0.85;;
70416;SDS011;57839;51.332;12.410;2022-07-06T12:41:43;5.20;;;1.45;;
70416;SDS011;57839;51.332;12.410;2022-07-06T12:44:28;13.27;;;2.03;;
70416;SDS011;57839;51.332;12.410;2022-07-06T12:47:04;11.38;;;1.60;;
70416;SDS011;57839;51.332;12.410;2022-07-06T12:49:31;4.30;;;0.93;;
70416;SDS011;57839;51.332;12.410;2022-07-06T12:51:58;7.78;;;1.85;;
70416;SDS011;57839;51.332;12.410;2022-07-06T12:54:48;5.25;;;1.55;;
70416;SDS011;57839;51.332;12.410;2022-07-06T12:59:47;5.80;;;1.10;;
70416;SDS011;57839;51.332;12.410;2022-07-06T13:02:26;4.60;;;1.20;;
70416;SDS011;57839;51.332;12.410;2022-07-06T13:04:59;6.82;;;1.67;;
70416;SDS011;57839;51.332;12.410;2022-07-06T13:07:27;6.88;;;1.23;;
70416;SDS011;57839;51.332;12.410;2022-07-06T13:09:53;3.25;;;0.70;;
70416;SDS011;57839;51.332;12.410;2022-07-06T13:12:20;4.95;;;0.75;;
70416;SDS011;57839;51.332;12.410;2022-07-06T13:14:46;4.72;;;1.20;;
70416;SDS011;57839;51.332;12.410;2022-07-06T13:17:12;4.88;;;1.25;;
70416;SDS011;57839;51.332;12.410;2022-07-06T13:19:37;4.65;;;0.98;;
70416;SDS011;57839;51.332;12.410;2022-07-06T13:22:03;4.80;;;1.10;;
70416;SDS011;57839;51.332;12.410;2022-07-06T13:24:29;8.32;;;1.00;;
70416;SDS011;57839;51.332;12.410;2022-07-06T13:26:55;2.42;;;1.00;;
70416;SDS011;57839;51.332;12.410;2022-07-06T13:29:21;4.47;;;1.20;;
70416;SDS011;57839;51.332;12.410;2022-07-06T13:31:47;6.88;;;0.98;;
70416;SDS011;57839;51.332;12.410;2022-07-06T13:34:12;1.27;;;0.98;;
70416;SDS011;57839;51.332;12.410;2022-07-06T13:36:41;6.45;;;1.25;;
70416;SDS011;57839;51.332;12.410;2022-07-06T13:39:07;6.15;;;1.27;;
70416;SDS011;57839;51.332;12.410;2022-07-06T13:41:33;3.83;;;1.30;;
70416;SDS011;57839;51.332;12.410;2022-07-06T13:43:59;1.77;;;0.73;;
70416;SDS011;57839;51.332;12.410;2022-07-06T13:46:26;2.30;;;0.80;;
70416;SDS011;57839;51.332;12.410;2022-07-06T13:48:52;2.50;;;1.00;;
70416;SDS011;57839;51.332;12.410;2022-07-06T13:51:18;3.25;;;0.90;;
70416;SDS011;57839;51.332;12.410;2022-07-06T13:53:44;2.05;;;0.90;;
70416;SDS011;57839;51.332;12.410;2022-07-06T13:56:09;3.38;;;0.90;;
70416;SDS011;57839;51.332;12.410;2022-07-06T13:58:36;4.63;;;1.05;;
70416;SDS011;57839;51.332;12.410;2022-07-06T14:01:02;2.42;;;1.08;;
70416;SDS011;57839;51.332;12.410;2022-07-06T14:03:28;4.00;;;1.05;;
70416;SDS011;57839;51.332;12.410;2022-07-06T14:05:55;1.92;;;0.90;;
70416;SDS011;57839;51.332;12.410;2022-07-06T14:08:22;7.57;;;1.52;;
70416;SDS011;57839;51.332;12.410;2022-07-06T14:10:48;3.72;;;1.15;;
70416;SDS011;57839;51.332;12.410;2022-07-06T14:13:14;4.95;;;1.10;;
70416;SDS011;57839;51.332;12.410;2022-07-06T14:15:39;2.47;;;1.10;;
70416;SDS011;57839;51.332;12.410;2022-07-06T14:18:05;3.28;;;0.80;;
70416;SDS011;57839;51.332;12.410;2022-07-06T14:20:31;5.55;;;1.10;;
70416;SDS011;57839;51.332;12.410;2022-07-06T14:22:56;1.65;;;0.98;;
70416;SDS011;57839;51.332;12.410;2022-07-06T14:25:22;5.25;;;1.27;;
70416;SDS011;57839;51.332;12.410;2022-07-06T14:27:47;2.63;;;0.80;;
70416;SDS011;57839;51.332;12.410;2022-07-06T14:30:13;3.13;;;0.93;;
70416;SDS011;57839;51.332;12.410;2022-07-06T14:32:38;1.73;;;0.70;;
70416;SDS011;57839;51.332;12.410;2022-07-06T14:35:04;4.32;;;1.20;;
70416;SDS011;57839;51.332;12.410;2022-07-06T14:37:30;3.83;;;1.10;;
70416;SDS011;57839;51.332;12.410;2022-07-06T14:39:55;2.65;;;0.90;;
70416;SDS011;57839;51.332;12.410;2022-07-06T14:42:21;3.92;;;0.90;;
70416;SDS011;57839;51.332;12.410;2022-07-06T14:44:46;2.33;;;1.00;;
70416;SDS011;57839;51.332;12.410;2022-07-06T14:47:12;2.40;;;0.93;;
70416;SDS011;57839;51.332;12.410;2022-07-06T14:49:38;2.83;;;1.25;;
70416;SDS011;57839;51.332;12.410;2022-07-06T14:52:03;5.57;;;1.25;;
70416;SDS011;57839;51.332;12.410;2022-07-06T14:54:29;4.65;;;0.90;;